Time;durP1;ratioP1;P1;durP2;ratioP2;P2;SDS_P1;SDS_P2;PMS_P1;PMS_P2;Temp;Humidity;BMP_temperature;BMP_pressure;BME280_temperature;BME280_humidity;BME280_pressure;Samples;Min_cycle;Max_cycle;Signal;HPM_P1;HPM_P2
2022/07/05 00:01:58;;;;;;;2.93;1.80;;;;;;;-146.64;100.00;112526.16;5014814;28;20092;-80
2022/07/05 00:04:23;;;;;;;6.50;2.20;;;;;;;-146.64;100.00;113059.81;5006495;28;20108;-79
2022/07/05 00:09:34;;;;;;;7.28;2.13;;;;;;;-146.64;100.00;111459.13;5013056;28;20040;-79
2022/07/05 00:12:00;;;;;;;4.40;2.17;;;;;;;-146.64;100.00;111725.84;5012289;28;20117;-79
2022/07/05 00:14:26;;;;;;;2.50;1.75;;;;;;;-146.64;100.00;110392.34;5015397;28;20033;-80
2022/07/05 00:16:52;;;;;;;2.87;2.00;;;;;;;-146.64;100.00;111192.41;4997733;28;20042;-80
2022/07/05 00:19:19;;;;;;;3.00;1.90;;;;;;;-146.64;100.00;112526.16;5002815;28;20034;-80
2022/07/05 00:21:44;;;;;;;2.58;2.05;;;;;;;-146.64;100.00;112526.16;5012332;28;20121;-80
2022/07/05 00:24:09;;;;;;;2.60;2.00;;;;;;;-146.64;100.00;112792.97;4996172;28;20157;-79
2022/07/05 00:26:35;;;;;;;4.27;2.00;;;;;;;-146.64;100.00;111992.59;5005593;28;20370;-80
2022/07/05 00:29:00;;;;;;;4.00;2.20;;;;;;;-146.64;100.00;113326.63;5000037;28;20111;-80
2022/07/05 00:31:25;;;;;;;3.97;2.20;;;;;;;-146.64;100.00;115195.03;4995005;28;20027;-80
2022/07/05 00:33:52;;;;;;;3.57;2.10;;;;;;;-146.64;100.00;114394.19;5002225;28;20037;-80
2022/07/05 00:36:17;;;;;;;;;;;;;;;-146.64;100.00;115195.03;4999128;28;20022;-80
2022/07/05 00:38:43;;;;;;;4.40;2.20;;;;;;;-146.64;100.00;115195.03;5014965;28;20379;-80
2022/07/05 00:41:08;;;;;;;2.90;2.30;;;;;;;-146.64;100.00;114127.28;5014187;28;20401;-80
2022/07/05 00:43:33;;;;;;;6.30;2.40;;;;;;;-146.64;100.00;114127.28;5005400;28;20520;-80
2022/07/05 00:46:00;;;;;;;7.33;2.07;;;;;;;-146.64;100.00;113593.50;5002003;28;20065;-80
2022/07/05 00:48:25;;;;;;;4.03;2.55;;;;;;;-146.64;100.00;113326.63;5008057;28;20106;-80
2022/07/05 00:50:51;;;;;;;3.07;2.50;;;;;;;-146.64;100.00;112526.16;5011528;28;20041;-80
2022/07/05 00:53:16;;;;;;;3.37;2.30;;;;;;;-146.64;100.00;112526.16;5007590;28;20022;-81
2022/07/05 00:55:43;;;;;;;4.53;2.33;;;;;;;-146.64;100.00;112792.97;4995314;28;20026;-80
2022/07/05 00:58:09;;;;;;;4.25;2.38;;;;;;;-146.64;100.00;113593.50;5026988;28;20097;-81
2022/07/05 01:00:35;;;;;;;10.18;2.85;;;;;;;-146.64;100.00;114394.19;4994072;28;20401;-80
2022/07/05 01:03:01;;;;;;;3.57;2.23;;;;;;;-146.64;100.00;115729.00;5012363;28;20053;-80
2022/07/05 01:05:27;;;;;;;6.30;2.93;;;;;;;-146.64;100.00;115462.00;5010730;28;20037;-80
2022/07/05 01:07:52;;;;;;;3.55;2.42;;;;;;;-146.64;100.00;116263.06;5001364;28;20092;-80
2022/07/05 01:10:17;;;;;;;5.00;2.60;;;;;;;-146.64;100.00;116797.16;5002788;28;20124;-80
2022/07/05 01:12:43;;;;;;;6.00;2.40;;;;;;;-146.64;100.00;116263.06;5009601;28;20057;-80
2022/07/05 01:15:09;;;;;;;3.53;2.40;;;;;;;-146.64;100.00;116797.16;5012952;28;20056;-80
2022/07/05 01:17:36;;;;;;;4.37;2.70;;;;;;;-146.64;100.00;116797.16;5012154;28;20030;-80
2022/07/05 01:20:07;;;;;;;4.32;2.65;;;;;;;-146.64;100.00;115996.03;5010800;28;20287;-81
2022/07/05 01:22:50;;;;;;;4.50;2.78;;;;;;;-146.64;100.00;115729.00;5005353;28;20054;-80
2022/07/05 01:25:15;;;;;;;2.72;2.22;;;;;;;-146.64;100.00;116530.09;4979327;28;20393;-80
2022/07/05 01:27:41;;;;;;;4.60;2.27;;;;;;;-146.64;100.00;116530.09;4990811;28;20038;-81
2022/07/05 01:30:08;;;;;;;2.50;2.25;;;;;;;-146.64;100.00;116797.16;4975565;28;20495;-80
2022/07/05 01:32:34;;;;;;;5.75;2.90;;;;;;;-146.64;100.00;116797.16;5005652;28;20120;-80
2022/07/05 01:35:03;;;;;;;4.60;2.50;;;;;;;-146.64;100.00;116797.16;4998051;28;20145;-81
2022/07/05 01:37:29;;;;;;;3.45;2.50;;;;;;;-146.64;100.00;115996.03;4984884;28;20022;-79
2022/07/05 01:39:57;;;;;;;3.40;2.42;;;;;;;-146.64;100.00;115996.03;5012865;28;20030;-79
2022/07/05 01:42:23;;;;;;;3.90;2.85;;;;;;;-146.64;100.00;115996.03;4992984;28;20515;-80
2022/07/05 01:44:49;;;;;;;6.17;2.93;;;;;;;-146.64;100.00;115195.03;5010976;28;20026;-79
2022/07/05 01:47:15;;;;;;;2.43;2.20;;;;;;;-146.64;100.00;115729.00;5007016;28;20026;-80
2022/07/05 01:49:43;;;;;;;4.57;2.47;;;;;;;-146.64;100.00;115996.03;4991023;28;20038;-79
2022/07/05 01:52:11;;;;;;;6.55;2.80;;;;;;;-146.64;100.00;115462.00;5002456;28;20470;-79
2022/07/05 01:54:36;;;;;;;3.67;3.10;;;;;;;-146.64;100.00;116530.09;4994141;28;20605;-79
2022/07/05 01:57:04;;;;;;;5.63;2.87;;;;;;;-146.64;100.00;116797.16;5000236;28;20120;-80
2022/07/05 01:59:31;;;;;;;2.58;2.25;;;;;;;-146.64;100.00;117064.25;5010937;28;20033;-79
2022/07/05 02:01:56;;;;;;;;;;;;;;;-146.64;100.00;116797.16;5009078;28;20419;-79
2022/07/05 02:04:21;;;;;;;4.28;2.70;;;;;;;-146.64;100.00;116530.09;5007937;28;19924;-81
2022/07/05 02:06:47;;;;;;;7.47;3.00;;;;;;;-146.64;100.00;115729.00;4992387;28;20037;-80
2022/07/05 02:09:12;;;;;;;3.87;2.90;;;;;;;-146.64;100.00;116263.06;5010827;28;20040;-80
2022/07/05 02:11:38;;;;;;;3.30;2.90;;;;;;;-146.64;100.00;116263.06;5001673;28;20477;-79
2022/07/05 02:14:04;;;;;;;4.50;2.90;;;;;;;-146.64;100.00;117064.25;5009560;28;20105;-79
2022/07/05 02:16:29;;;;;;;3.80;3.10;;;;;;;-146.64;100.00;117331.34;5009842;28;20129;-80
2022/07/05 02:18:55;;;;;;;7.67;3.20;;;;;;;-146.64;100.00;117331.34;4993372;28;20025;-79
2022/07/05 02:21:20;;;;;;;3.30;3.00;;;;;;;-146.64;100.00;118132.78;5008127;28;20034;-80
2022/07/05 02:23:46;;;;;;;4.87;3.37;;;;;;;-146.64;100.00;118132.78;5008203;28;20033;-80
2022/07/05 02:26:12;;;;;;;6.15;4.07;;;;;;;-146.64;100.00;117598.47;5003829;28;20022;-80
2022/07/05 02:28:38;;;;;;;5.93;4.00;;;;;;;-146.64;100.00;116797.16;4993584;28;20043;-79
2022/07/05 02:31:03;;;;;;;6.50;4.33;;;;;;;-146.64;100.00;117064.25;5007656;28;20029;-80
2022/07/05 02:33:29;;;;;;;7.10;4.73;;;;;;;-146.64;100.00;117064.25;5019935;28;20045;-79
2022/07/05 02:35:54;;;;;;;6.40;5.17;;;;;;;-146.64;100.00;117331.34;5006990;28;20030;-80
2022/07/05 02:38:19;;;;;;;11.93;6.80;;;;;;;-146.64;100.00;118132.78;5010380;28;20535;-79
2022/07/05 02:40:45;;;;;;;7.83;5.97;;;;;;;-146.64;100.00;117865.63;5004332;28;20038;-79
2022/07/05 02:43:12;;;;;;;8.33;6.37;;;;;;;-146.64;100.00;117865.63;4995698;28;20374;-80
2022/07/05 02:45:39;;;;;;;8.43;5.97;;;;;;;-146.64;100.00;117865.63;5010125;28;20034;-79
2022/07/05 02:48:04;;;;;;;10.48;5.95;;;;;;;-146.64;100.00;117865.63;5000721;28;20026;-79
2022/07/05 02:50:29;;;;;;;8.97;5.03;;;;;;;-146.64;100.00;117331.34;5007905;28;20084;-80
2022/07/05 02:52:55;;;;;;;5.53;4.80;;;;;;;-146.64;100.00;117865.63;4989847;28;20037;-80
2022/07/05 02:55:20;;;;;;;7.80;5.50;;;;;;;-146.64;100.00;117865.63;4992889;28;20109;-79
2022/07/05 02:57:46;;;;;;;9.07;5.70;;;;;;;-146.64;100.00;118132.78;4989894;28;20092;-79
2022/07/05 03:00:12;;;;;;;8.67;5.63;;;;;;;-146.64;100.00;118132.78;5009989;28;20116;-80
2022/07/05 03:02:38;;;;;;;;;;;;;;;-146.64;100.00;118132.78;5008453;28;20065;-80
2022/07/05 03:05:03;;;;;;;6.07;4.93;;;;;;;-146.64;100.00;118399.94;4992953;28;20381;-80
2022/07/05 03:07:28;;;;;;;9.73;5.50;;;;;;;-146.64;100.00;118399.94;5008077;28;20386;-80
2022/07/05 03:09:54;;;;;;;8.20;6.07;;;;;;;-146.64;100.00;118399.94;5009520;28;20113;-80
2022/07/05 03:12:20;;;;;;;9.43;5.73;;;;;;;-146.64;100.00;118402.03;4990483;28;20288;-79
2022/07/05 03:14:46;;;;;;;7.25;6.05;;;;;;;-146.64;100.00;118402.03;5009944;28;20062;-80
2022/07/05 03:17:12;;;;;;;10.37;6.40;;;;;;;-146.64;100.00;118402.03;5004548;28;20124;-80
2022/07/05 03:19:37;;;;;;;8.48;5.32;;;;;;;-146.64;100.00;118402.03;4989725;28;20038;-80
2022/07/05 03:22:03;;;;;;;11.03;6.50;;;;;;;-146.64;100.00;118402.03;5004616;28;20061;-79
2022/07/05 03:24:30;;;;;;;9.40;6.17;;;;;;;-146.64;100.00;118402.03;5009593;28;20481;-80
2022/07/05 03:26:55;;;;;;;13.73;6.38;;;;;;;-146.64;100.00;118132.78;5016463;28;20018;-80
2022/07/05 03:29:21;;;;;;;9.60;7.47;;;;;;;-146.64;100.00;118402.03;5018906;28;20050;-80
2022/07/05 03:31:46;;;;;;;10.37;7.07;;;;;;;-146.64;100.00;118399.94;4975042;28;20519;-79
2022/07/05 03:34:13;;;;;;;13.63;8.10;;;;;;;-146.64;100.00;118402.03;4992715;28;20041;-80
2022/07/05 03:36:38;;;;;;;16.92;7.90;;;;;;;-146.64;100.00;118402.03;4988599;28;20030;-80
2022/07/05 03:39:04;;;;;;;10.17;7.13;;;;;;;-146.64;100.00;118402.03;5006694;28;20037;-80
2022/07/05 03:41:29;;;;;;;12.80;7.57;;;;;;;-146.64;100.00;118402.03;4989752;28;20046;-79
2022/07/05 03:43:54;;;;;;;14.60;7.13;;;;;;;-146.64;100.00;118402.03;4989293;28;20026;-80
2022/07/05 03:46:20;;;;;;;12.43;7.83;;;;;;;-146.64;100.00;118402.03;4993743;28;20076;-80
2022/07/05 03:48:45;;;;;;;9.37;7.30;;;;;;;-146.64;100.00;118402.03;4989479;28;20022;-80
2022/07/05 03:51:11;;;;;;;8.93;6.93;;;;;;;-146.64;100.00;118402.03;5006323;28;20029;-80
2022/07/05 03:53:37;;;;;;;10.30;7.67;;;;;;;-146.64;100.00;118402.03;5006510;28;20029;-80
2022/07/05 03:56:03;;;;;;;11.88;7.90;;;;;;;-146.64;100.00;118402.03;5007510;28;20469;-80
2022/07/05 03:58:30;;;;;;;8.23;7.07;;;;;;;-146.64;100.00;118402.03;5008444;28;20041;-80
2022/07/05 04:00:56;;;;;;;8.90;6.68;;;;;;;-146.64;100.00;118402.03;4992158;28;20034;-80
2022/07/05 04:03:22;;;;;;;11.18;7.35;;;;;;;-146.64;100.00;118402.03;5007373;28;20378;-81
2022/07/05 04:05:47;;;;;;;14.37;7.73;;;;;;;-146.64;100.00;118402.03;4990441;28;20036;-80
2022/07/05 04:08:12;;;;;;;9.77;7.80;;;;;;;-146.64;100.00;118402.03;4995913;28;20038;-79
2022/07/05 04:10:39;;;;;;;12.87;7.80;;;;;;;-146.64;100.00;118402.03;4995662;28;20026;-80
2022/07/05 04:13:05;;;;;;;13.57;7.28;;;;;;;-146.64;100.00;118402.03;5005170;28;20034;-80
2022/07/05 04:15:30;;;;;;;15.90;8.63;;;;;;;-146.64;100.00;118402.03;5004298;28;20821;-80
2022/07/05 04:17:56;;;;;;;11.73;8.43;;;;;;;-146.64;100.00;118402.03;4990960;28;20030;-80
2022/07/05 04:20:24;;;;;;;14.75;9.25;;;;;;;-146.64;100.00;118402.03;4988755;28;20022;-81
2022/07/05 04:22:52;;;;;;;16.48;10.20;;;;;;;-146.64;100.00;118402.03;4993549;28;20505;-81
2022/07/05 04:25:18;;;;;;;11.40;9.38;;;;;;;-146.64;100.00;118402.03;5003471;28;20034;-82
2022/07/05 04:27:52;;;;;;;14.63;10.60;;;;;;;-146.64;100.00;118402.03;5002017;28;20031;-81
2022/07/05 04:30:19;;;;;;;13.07;9.63;;;;;;;-146.64;100.00;118402.03;5003553;28;20045;-81
2022/07/05 04:32:44;;;;;;;17.20;9.88;;;;;;;-146.64;100.00;118402.03;5007550;28;20175;-81
2022/07/05 04:35:11;;;;;;;12.33;9.37;;;;;;;-146.64;100.00;118402.03;4987606;28;20026;-80
2022/07/05 04:37:36;;;;;;;11.75;9.20;;;;;;;-146.64;100.00;118402.03;4994968;28;20477;-81
2022/07/05 04:40:06;;;;;;;11.73;9.17;;;;;;;-146.64;100.00;118402.03;4997292;28;20030;-81
2022/07/05 04:42:32;;;;;;;16.13;9.73;;;;;;;-146.64;100.00;118399.94;5011743;28;20034;-78
2022/07/05 04:44:57;;;;;;;17.47;9.63;;;;;;;-146.64;100.00;118132.78;5007546;28;20380;-80
2022/07/05 04:47:25;;;;;;;11.70;9.10;;;;;;;-146.64;100.00;117331.34;5005076;28;20014;-80
2022/07/05 04:49:52;;;;;;;20.60;10.48;;;;;;;-146.64;100.00;115996.03;5003815;28;20053;-82
2022/07/05 04:52:18;;;;;;;14.38;9.15;;;;;;;-146.64;100.00;115195.03;5007970;28;20038;-80
2022/07/05 04:54:44;;;;;;;13.47;9.50;;;;;;;-146.64;100.00;115195.03;5012086;28;20093;-81
2022/07/05 04:57:10;;;;;;;14.70;10.33;;;;;;;-146.64;100.00;114661.13;5008973;28;20045;-81
2022/07/05 04:59:35;;;;;;;17.30;9.45;;;;;;;-146.64;100.00;114394.19;4989479;28;20434;-81
2022/07/05 05:02:01;;;;;;;10.77;8.30;;;;;;;-146.64;100.00;113860.38;4990390;28;20037;-80
2022/07/05 05:04:26;;;;;;;18.20;8.93;;;;;;;-146.64;100.00;113059.81;4994202;28;20033;-81
2022/07/05 05:06:52;;;;;;;11.30;8.83;;;;;;;-146.64;100.00;111725.84;4996616;28;20037;-80
2022/07/05 05:09:17;;;;;;;15.63;8.70;;;;;;;-146.64;100.00;109592.44;4990397;28;20029;-80
2022/07/05 05:11:43;;;;;;;12.30;8.17;;;;;;;-146.64;100.00;109325.84;5003224;28;20496;-80
2022/07/05 05:14:08;;;;;;;12.57;8.17;;;;;;;-146.64;100.00;108792.72;4984674;28;20034;-79
2022/07/05 05:16:34;;;;;;;11.23;9.00;;;;;;;-146.64;100.00;106660.84;5008667;28;20022;-79
2022/07/05 05:18:59;;;;;;;12.40;8.07;;;;;;;-146.64;100.00;105861.69;5003698;28;20126;-79
2022/07/05 05:21:24;;;;;;;12.77;8.13;;;;;;;-146.64;100.00;103731.34;4977998;28;20034;-79
2022/07/05 05:23:50;;;;;;;14.70;9.57;;;;;;;-146.64;100.00;101336.06;5018601;28;20042;-79
2022/07/05 05:26:15;;;;;;;14.43;9.03;;;;;;;-146.64;100.00;100005.94;5015571;28;20033;-80
2022/07/05 05:28:41;;;;;;;14.20;8.40;;;;;;;-146.64;100.00;101336.06;4995996;28;20046;-79
2022/07/05 05:31:06;;;;;;;12.93;8.10;;;;;;;-146.64;100.00;93361.97;5015240;28;20474;-80
2022/07/05 05:33:32;;;;;;;13.87;8.43;;;;;;;-146.64;100.00;90707.41;5009123;28;20117;-79
2022/07/05 05:35:59;;;;;;;18.50;9.17;;;;;;;-146.64;100.00;79312.78;5014885;28;20472;-79
2022/07/05 05:38:24;;;;;;;13.93;7.85;;;;;;;-146.64;100.00;83813.78;5008300;28;20065;-79
2022/07/05 05:40:51;;;;;;;11.83;8.10;;;;;;;-146.64;100.00;88054.63;4985025;28;20058;-79
2022/07/05 05:43:16;;;;;;;11.00;7.20;;;;;;;-146.64;100.00;86198.72;5004407;28;20120;-79
2022/07/05 05:45:42;;;;;;;13.27;8.70;;;;;;;-146.64;100.00;79312.78;4999936;28;20097;-80
2022/07/05 05:48:07;;;;;;;12.63;8.83;;;;;;;-146.64;100.00;76138.66;5013187;28;20139;-80
2022/07/05 05:50:36;;;;;;;10.27;7.00;;;;;;;-146.64;100.00;68478.19;5014224;28;20041;-79
2022/07/05 05:53:02;;;;;;;13.13;7.60;;;;;;;-146.64;100.00;69269.97;5013447;28;20030;-80
2022/07/05 05:55:29;;;;;;;12.88;7.82;;;;;;;-146.64;100.00;61886.13;5013754;28;20038;-79
2022/07/05 05:57:57;;;;;;;12.57;6.93;;;;;;;-146.64;100.00;37923.84;4981954;28;20107;-79
2022/07/05 06:00:23;;;;;;;13.88;6.80;;;;;;;-146.64;100.00;37944.28;4995846;28;20034;-80
2022/07/05 06:02:50;;;;;;;8.43;6.40;;;;;;;-146.64;100.00;47056.97;5017804;28;20088;-80
2022/07/05 06:05:16;;;;;;;10.07;6.97;;;;;;;-146.64;100.00;46724.78;5013783;28;20370;-80
2022/07/05 06:08:08;;;;;;;12.10;8.23;;;;;;;-146.64;100.00;54253.00;4996323;28;20495;-79
2022/07/05 06:10:35;;;;;;;16.35;7.18;;;;;;;-146.64;100.00;34903.25;5018639;28;20029;-80
2022/07/05 06:13:07;;;;;;;12.73;6.43;;;;;;;-146.64;100.00;34731.53;5011613;28;20062;-80
2022/07/05 06:15:33;;;;;;;15.05;6.72;;;;;;;-146.64;100.00;34533.25;5011364;28;20423;-80
2022/07/05 06:17:58;;;;;;;12.38;6.18;;;;;;;-146.64;100.00;35154.69;5010398;28;20030;-80
2022/07/05 06:20:26;;;;;;;10.70;6.00;;;;;;;-146.64;100.00;35136.28;5008291;28;20061;-82
2022/07/05 06:22:52;;;;;;;16.35;7.70;;;;;;;-146.64;100.00;35222.16;4978548;28;20092;-82
2022/07/05 06:25:18;;;;;;;;;;;;;;;-146.64;100.00;36872.41;4995359;28;20053;-82
2022/07/05 06:27:46;;;;;;;12.02;6.03;;;;;;;-146.64;100.00;39495.38;5008918;28;19960;-83
2022/07/05 06:30:15;;;;;;;13.95;6.80;;;;;;;-146.64;100.00;46757.59;4993353;28;20030;-82
2022/07/05 06:32:43;;;;;;;12.57;6.75;;;;;;;-146.64;100.00;55305.00;4989985;28;20111;-83
2022/07/05 06:35:09;;;;;;;10.57;7.00;;;;;;;-146.64;100.00;59252.38;5005189;28;20025;-81
2022/07/05 06:37:47;;;;;;;11.30;7.05;;;;;;;-146.64;100.00;62940.13;5024497;28;20073;-80
2022/07/05 06:40:17;;;;;;;12.48;6.55;;;;;;;-146.64;100.00;65048.97;5019378;28;20030;-80
2022/07/05 06:42:50;;;;;;;13.15;6.10;;;;;;;-146.64;100.00;66631.31;5006926;28;20436;-80
2022/07/05 06:45:16;;;;;;;15.90;7.35;;;;;;;-146.64;100.00;65312.66;5008244;28;20022;-79
2022/07/05 06:47:41;;;;;;;10.50;6.67;;;;;;;-146.64;100.00;68214.31;5005092;28;20046;-80
2022/07/05 06:50:10;;;;;;;7.83;4.73;;;;;;;-146.64;100.00;49984.31;5006506;28;20560;-80
2022/07/05 06:52:36;;;;;;;8.07;3.08;;;;;;;-146.64;100.00;39579.28;5010158;28;20373;-80
2022/07/05 06:55:02;;;;;;;5.60;3.15;;;;;;;-146.64;100.00;37410.34;5011908;28;20027;-79
2022/07/05 06:57:28;;;;;;;10.57;3.85;;;;;;;-146.64;100.00;37348.97;5005747;28;20026;-79
2022/07/05 06:59:54;;;;;;;10.40;4.30;;;;;;;-146.64;100.00;39587.47;5024220;28;20132;-80
2022/07/05 07:02:20;;;;;;;9.18;4.30;;;;;;;-146.64;100.00;38891.66;5036040;28;20261;-80
2022/07/05 07:04:46;;;;;;;10.88;4.63;;;;;;;-146.64;100.00;38613.34;5029087;28;20369;-79
2022/07/05 07:09:57;;;;;;;11.18;5.30;;;;;;;-146.64;100.00;37271.25;5016937;28;20041;-79
2022/07/05 07:12:22;;;;;;;12.70;5.55;;;;;;;-146.64;100.00;36536.97;5017037;28;20033;-79
2022/07/05 07:14:49;;;;;;;13.17;5.50;;;;;;;-146.64;100.00;36559.47;5017813;28;20092;-77
2022/07/05 07:17:14;;;;;;;15.45;6.43;;;;;;;-146.64;100.00;38695.19;5006972;28;20057;-79
2022/07/05 07:19:40;;;;;;;11.73;6.30;;;;;;;-146.64;100.00;36657.63;5012646;28;20030;-78
2022/07/05 07:22:05;;;;;;;7.77;5.47;;;;;;;-146.64;100.00;35823.28;5010933;28;20030;-79
2022/07/05 07:24:30;;;;;;;11.30;5.77;;;;;;;-146.64;100.00;35565.66;5015671;28;20124;-78
2022/07/05 07:27:06;;;;;;;10.30;4.00;;;;;;;-146.64;100.00;36473.56;4994925;28;20069;-78
2022/07/05 07:29:33;;;;;;;7.93;4.53;;;;;;;-146.64;100.00;36297.69;5014269;28;20040;-79
2022/07/05 07:32:00;;;;;;;8.77;4.80;;;;;;;-146.64;100.00;36669.91;4995761;28;20030;-78
2022/07/05 07:34:27;;;;;;;9.13;4.03;;;;;;;-146.64;100.00;36747.63;5015668;28;20061;-79
2022/07/05 07:36:52;;;;;;;3.85;3.10;;;;;;;-146.64;100.00;36798.75;5026542;28;20037;-79
2022/07/05 07:39:18;;;;;;;5.30;3.85;;;;;;;-146.64;100.00;36892.84;5003327;28;20042;-78
2022/07/05 07:41:43;;;;;;;10.13;4.87;;;;;;;-146.64;100.00;36796.72;5013120;28;20050;-77
2022/07/05 07:44:11;;;;;;;11.27;5.47;;;;;;;-146.64;100.00;36622.88;5010905;28;20363;-78
2022/07/05 07:46:39;;;;;;;5.38;3.10;;;;;;;-146.64;98.99;37150.56;5014034;28;20505;-78
2022/07/05 07:49:04;;;;;;;14.57;4.45;;;;;;;-146.64;100.00;37005.34;5001653;28;20480;-78
2022/07/05 07:51:30;;;;;;;9.93;5.03;;;;;;;-146.64;100.00;36946.03;5018420;28;20030;-78
2022/07/05 07:53:56;;;;;;;10.77;4.50;;;;;;;-146.64;100.00;36984.88;5004313;28;20053;-78
2022/07/05 07:56:21;;;;;;;6.80;3.90;;;;;;;-146.64;100.00;37007.38;5013614;28;20422;-78
2022/07/05 07:58:47;;;;;;;7.43;3.60;;;;;;;-146.64;100.00;36935.81;5023908;28;20053;-78
2022/07/05 08:01:14;;;;;;;6.13;3.05;;;;;;;-146.64;100.00;36903.06;5004501;28;20037;-78
2022/07/05 08:03:43;;;;;;;6.90;3.53;;;;;;;-146.64;100.00;36768.09;5007529;28;20033;-78
2022/07/05 08:06:10;;;;;;;4.05;2.70;;;;;;;-146.64;99.98;36698.53;5020319;28;20040;-79
2022/07/05 08:08:39;;;;;;;4.72;3.38;;;;;;;-146.64;97.20;36896.94;5015623;28;20125;-79
2022/07/05 08:11:06;;;;;;;11.10;3.58;;;;;;;-146.64;96.73;36911.25;5013793;28;20164;-79
2022/07/05 08:13:31;;;;;;;6.68;3.65;;;;;;;-146.64;96.45;36772.19;5020649;28;20042;-79
2022/07/05 08:15:58;;;;;;;10.10;4.43;;;;;;;-146.64;98.86;36829.44;5001145;28;20033;-78
2022/07/05 08:23:52;;;;;;;6.65;4.10;;;;;;;-146.64;97.91;36592.19;5012996;28;20350;-79
2022/07/05 08:26:21;;;;;;;6.03;3.90;;;;;;;-146.64;97.19;36567.66;5013283;28;20034;-78
2022/07/05 08:28:46;;;;;;;6.40;3.72;;;;;;;-146.64;95.09;36622.88;5021350;28;20025;-79
2022/07/05 08:31:13;;;;;;;6.40;2.87;;;;;;;-146.64;92.57;36637.19;5014997;28;20040;-79
2022/07/05 08:33:39;;;;;;;4.40;2.30;;;;;;;-146.64;91.66;36829.44;5016866;28;20038;-78
2022/07/05 08:36:05;;;;;;;8.40;2.20;;;;;;;-146.64;90.16;36913.31;4987511;28;20107;-78
2022/07/05 08:38:31;;;;;;;4.47;2.00;;;;;;;-146.64;91.04;36872.41;4994893;28;20056;-77
2022/07/05 08:40:56;;;;;;;8.23;2.57;;;;;;;-146.64;91.30;36937.84;4991905;28;20030;-77
2022/07/05 08:43:23;;;;;;;6.70;2.17;;;;;;;-146.64;91.34;37005.34;5011468;28;20339;-77
2022/07/05 08:45:49;;;;;;;3.40;2.13;;;;;;;-146.64;91.67;36984.88;4999268;28;20073;-79
2022/07/05 08:48:19;;;;;;;4.22;1.90;;;;;;;-146.64;89.16;37185.34;5018289;28;20033;-78
2022/07/05 08:50:47;;;;;;;1.83;1.45;;;;;;;-146.64;88.15;37146.47;5006622;28;20029;-78
2022/07/05 08:53:14;;;;;;;5.05;1.92;;;;;;;-146.64;81.62;36997.16;4996279;28;20036;-79
2022/07/05 08:55:40;;;;;;;6.40;1.70;;;;;;;-146.64;80.66;36984.88;4999280;28;20084;-79
2022/07/05 08:58:05;;;;;;;3.13;1.52;;;;;;;-146.64;81.77;37087.16;5002374;28;20397;-79
2022/07/05 09:00:31;;;;;;;6.43;1.80;;;;;;;-146.64;81.62;37083.06;5016632;28;20044;-79
2022/07/05 09:02:57;;;;;;;4.05;1.42;;;;;;;-146.64;82.31;37187.38;4997810;28;20128;-79
2022/07/05 09:05:24;;;;;;;5.67;2.10;;;;;;;-146.64;82.20;37189.44;5023277;28;20037;-79
2022/07/05 09:07:58;;;;;;;5.40;1.60;;;;;;;-146.64;83.90;37201.72;5020844;28;20466;-79
2022/07/05 09:10:26;;;;;;;4.15;1.55;;;;;;;-146.64;82.74;37168.97;5027513;28;20034;-79
2022/07/05 09:12:51;;;;;;;3.65;1.83;;;;;;;-146.64;84.45;37066.72;5009768;28;20037;-80
2022/07/05 09:15:17;;;;;;;3.03;1.20;;;;;;;-146.64;81.31;37089.22;4999447;28;20091;-79
2022/07/05 09:17:44;;;;;;;6.10;1.37;;;;;;;-146.64;82.42;37011.47;4997035;28;20044;-80
2022/07/05 09:20:12;;;;;;;1.98;1.20;;;;;;;-146.64;82.92;37017.63;5003497;28;20072;-80
2022/07/05 09:22:55;;;;;;;5.07;1.55;;;;;;;-146.64;79.57;37011.47;5029334;28;20509;-79
2022/07/05 09:25:20;;;;;;;4.90;1.33;;;;;;;-146.64;79.42;36952.16;5029369;28;20030;-80
2022/07/05 09:27:53;;;;;;;7.15;1.88;;;;;;;-146.64;78.87;36980.81;5027209;28;20080;-80
2022/07/05 09:30:31;;;;;;;5.80;2.15;;;;;;;-146.64;76.96;36800.81;5030050;28;20010;-80
2022/07/05 09:33:15;;;;;;;4.82;2.17;;;;;;;-146.64;73.75;36694.47;5028318;28;20084;-80
2022/07/05 09:35:42;;;;;;;6.43;1.52;;;;;;;-146.64;72.00;36496.06;5022459;28;20034;-80
2022/07/05 09:38:17;;;;;;;4.63;1.85;;;;;;;-146.64;70.24;36285.44;5008552;28;20425;-81
2022/07/05 09:40:54;;;;;;;3.95;1.67;;;;;;;-146.64;69.29;36641.28;5024866;28;20192;-80
2022/07/05 09:43:21;;;;;;;3.88;2.08;;;;;;;-146.64;72.15;36481.75;5021718;28;20144;-80
2022/07/05 09:45:52;;;;;;;6.72;1.67;;;;;;;-146.64;73.47;36956.25;5017351;28;20038;-81
2022/07/05 09:48:18;;;;;;;3.53;1.50;;;;;;;-146.64;75.44;37091.25;5018342;28;20377;-79
2022/07/05 09:50:48;;;;;;;6.43;1.70;;;;;;;-146.64;73.90;37101.47;5019556;28;20081;-79
2022/07/05 09:53:13;;;;;;;2.55;1.75;;;;;;;-146.64;74.42;36841.72;5014537;28;20089;-80
2022/07/05 09:55:40;;;;;;;4.33;1.20;;;;;;;-146.64;70.37;36404.03;5006683;28;20048;-79
2022/07/05 09:58:05;;;;;;;1.42;1.08;;;;;;;-146.64;66.43;36299.75;5007658;28;20366;-80
2022/07/05 10:00:30;;;;;;;5.60;1.87;;;;;;;-146.64;67.67;36686.28;5016684;28;20038;-80
2022/07/05 10:03:03;;;;;;;7.83;1.83;;;;;;;-146.64;70.37;37093.28;5027414;28;20094;-79
2022/07/05 10:05:32;;;;;;;4.05;1.33;;;;;;;-146.64;73.27;37101.47;5011326;28;20034;-79
2022/07/05 10:08:01;;;;;;;3.80;1.33;;;;;;;-146.64;74.60;37128.06;5026970;28;20090;-80
2022/07/05 10:10:31;;;;;;;5.72;1.20;;;;;;;-146.64;75.00;37199.66;5023943;28;20026;-80
2022/07/05 10:12:58;;;;;;;5.88;1.40;;;;;;;-146.64;76.34;37236.47;5036297;28;20052;-80
2022/07/05 10:15:29;;;;;;;5.50;1.38;;;;;;;-146.64;76.70;37107.63;5009618;28;20108;-80
2022/07/05 10:18:10;;;;;;;10.02;2.33;;;;;;;-146.64;72.98;36725.13;5024178;28;20026;-80
2022/07/05 10:20:45;;;;;;;4.90;1.38;;;;;;;-146.64;67.74;36706.72;5019187;28;20030;-79
2022/07/05 10:23:18;;;;;;;4.40;1.45;;;;;;;-146.64;67.28;36622.88;5001167;28;20032;-80
2022/07/05 10:25:49;;;;;;;6.47;1.27;;;;;;;-146.64;64.00;36342.69;5018910;28;20034;-80
2022/07/05 10:28:20;;;;;;;4.45;1.20;;;;;;;-146.64;64.76;36547.19;5025926;28;20053;-80
2022/07/05 10:30:52;;;;;;;6.40;1.30;;;;;;;-146.64;62.18;36459.25;5026153;28;20579;-80
2022/07/05 10:33:26;;;;;;;7.65;1.15;;;;;;;-146.64;62.19;36772.19;5039412;28;20465;-80
2022/07/05 10:35:52;;;;;;;7.95;1.10;;;;;;;-146.64;67.56;36966.47;5022486;28;20040;-80
2022/07/05 10:38:18;;;;;;;4.53;1.40;;;;;;;-146.64;66.56;36997.16;5011401;28;20026;-80
2022/07/05 10:40:47;;;;;;;2.67;1.13;;;;;;;-146.64;65.62;36858.06;5020538;28;20087;-80
2022/07/05 10:43:13;;;;;;;2.15;1.00;;;;;;;-146.64;66.97;36986.94;5019579;28;20093;-80
2022/07/05 10:45:40;;;;;;;3.97;1.20;;;;;;;-146.64;68.66;36982.84;5025586;28;20052;-80
2022/07/05 10:48:09;;;;;;;5.15;1.50;;;;;;;-146.64;66.18;37099.44;5022384;28;20033;-81
2022/07/05 10:50:57;;;;;;;3.90;1.23;;;;;;;-146.64;65.80;36702.63;5037379;28;20023;-81
2022/07/05 10:53:30;;;;;;;8.95;1.20;;;;;;;-146.64;62.61;36655.59;5028672;28;20084;-80
2022/07/05 10:56:05;;;;;;;2.38;1.35;;;;;;;-146.64;62.47;36755.81;5026458;28;20050;-80
2022/07/05 10:58:37;;;;;;;2.45;1.20;;;;;;;-146.64;60.14;36459.25;5021039;28;20420;-81
2022/07/05 11:01:12;;;;;;;2.17;1.30;;;;;;;-146.64;58.60;36342.69;5007526;28;20052;-81
2022/07/05 11:03:40;;;;;;;5.38;1.40;;;;;;;-146.64;58.25;36449.03;5021608;28;20038;-80
2022/07/05 11:06:07;;;;;;;3.67;1.77;;;;;;;-146.64;59.04;36645.38;5022115;28;20030;-79
2022/07/05 11:08:59;;;;;;;7.05;1.30;;;;;;;-146.64;60.01;36753.78;4996624;28;20504;-80
2022/07/05 11:11:26;;;;;;;3.97;1.10;;;;;;;-146.64;60.21;36886.72;4996337;28;20037;-80
2022/07/05 11:13:53;;;;;;;4.43;1.38;;;;;;;-146.64;61.91;37013.53;5016330;28;20034;-80
2022/07/05 11:16:31;;;;;;;3.78;1.05;;;;;;;-146.64;60.95;37074.88;5008922;28;20142;-80
2022/07/05 11:19:09;;;;;;;3.85;1.10;;;;;;;-146.64;58.29;36641.28;5036401;28;20030;-80